CCGS Terry Fox — CGTF — position and weather

sailwx.info

Track history (hours):
 
Tides and Currents Weather Stations Pressure Air Temp Water Temp Dewpoint Dewpoint Depression Visibility Wind Speed Wind Dir Waves Ship Positions

Oceanographic research ship CCGS Terry Fox (Canada)

Detailed information on ship capabilities available from ARCUS's ALIAS (Arctic Logistics Information and Support) project.

Last reported at 2017-Aug-17 16:00 UTC. Time now 2017-Aug-17 17:09 UTC.
Position N 73°12' W 091°18'.

Length 88 m; beam 17.82 m; draft 2 m.

Type: SAR. MMSI: 316122000.

Wind from 050 at 12 knots

Barometer 1016.2 mb
Air temperature 3.1 ° C
Dewpoint 0.8 ° C

Date/timePositionNaut miles runAvg speedWind from/ knotsBaromVisibWave heightAir tempDewpointWater temp
2017-Aug-17 16:00N 73°12' W 091°18'0 0.0 050 / 121016.2 3.1 0.8
2017-Aug-17 15:00N 73°12' W 091°18'0 0.0 040 / 101016.6 2.5 0.5
2017-Aug-17 14:00N 73°12' W 091°18'0 0.0 040 / 41016.8 3.0 0.5
2017-Aug-17 13:00N 73°12' W 091°18'0 0.0 050 / 41017.2 5.4 1.6
2017-Aug-17 12:00N 73°12' W 091°18'0 0.0 240 / 81017.2 3.4 0.5
2017-Aug-17 11:00N 73°12' W 091°18'0 0.0 250 / 101017.4 3.1-0.0
2017-Aug-17 10:00N 73°12' W 091°18'0 0.0 250 / 71017.4 3.4 0.2
2017-Aug-17 09:00N 73°12' W 091°18'0 0.0 240 / 81017.5 3.4-0.2
2017-Aug-17 08:00N 73°12' W 091°18'0 0.0 240 / 51017.4 3.4 0.6
2017-Aug-17 07:00N 73°12' W 091°18'0 0.0 310 / 11017.4 3.4 1.5
2017-Aug-17 06:00N 73°12' W 091°18'0 0.0 240 / 11017.3 4.1 1.7
2017-Aug-17 05:00N 73°12' W 091°18'0 0.0 250 / 51017.0 4.2 2.1
2017-Aug-17 04:00N 73°12' W 091°18'0 0.0 250 / 21017.0 3.2 1.1
2017-Aug-17 03:00N 73°12' W 091°18'0 0.0 080 / 11016.9 3.3 2.4
2017-Aug-17 02:00N 73°12' W 091°18'0 0.0 040 / 41017.2 3.2 1.8
2017-Aug-17 01:00N 73°12' W 091°18'0 0.0 240 / 31017.2 3.8 1.5
2017-Aug-17 00:00N 73°12' W 091°18'0 0.0 240 / 11017.5 4.3 3.0
2017-Aug-16 23:00N 73°12' W 091°18'0 0.0 080 / 61017.4 2.3 2.0
2017-Aug-16 22:00N 73°12' W 091°18'0 0.0 080 / 71017.2 2.8 1.5
2017-Aug-16 21:00N 73°12' W 091°18'0 0.0 050 / 91017.1 3.0 0.3
2017-Aug-16 20:00N 73°12' W 091°18'0 0.0 150 / 91016.9 4.0 0.4
2017-Aug-16 19:00N 73°12' W 091°18'0 0.0 160 / 111017.1 3.9-0.3
2017-Aug-16 18:00N 73°12' W 091°18'0 0.0 160 / 121017.3 4.6-1.2
2017-Aug-16 17:00N 73°12' W 091°18'0 0.0 150 / 91017.7 4.4-0.4
2017-Aug-16 16:00N 73°12' W 091°18'0 0.0 150 / 71017.9 3.7-0.5
2017-Aug-16 15:00N 73°12' W 091°18'0 0.0 160 / 31018.0 4.4-0.1
2017-Aug-16 14:00N 73°12' W 091°18'0 0.0 250 / 41018.1 3.5 0.3
2017-Aug-16 13:00N 73°12' W 091°18'0 0.0 180 / 21018.2 2.7 0.7
2017-Aug-16 12:00N 73°12' W 091°18'0 0.0 250 / 71018.3 2.3-0.4
2017-Aug-16 11:00N 73°12' W 091°18'0 0.0 240 / 91018.0 2.3-0.6
2017-Aug-16 10:00N 73°12' W 091°18'0 0.0 230 / 111017.9 2.6-1.2
2017-Aug-16 09:00N 73°12' W 091°18'0 0.0 240 / 121017.8 2.3-1.0
2017-Aug-16 07:00N 73°12' W 091°18'0 0.0 230 / 71018.0 3.0-0.5
2017-Aug-16 06:00N 73°12' W 091°18'0 0.0 260 / 31018.2 4.3-0.7
2017-Aug-16 05:00N 73°12' W 091°18'0 0.0 310 / 21018.1 4.3-0.1
2017-Aug-16 03:00N 73°12' W 091°18'0 0.0 1017.8 5.8 0.2
2017-Aug-16 02:00N 73°12' W 091°18'0 0.0 270 / 11017.8 6.1 0.7
2017-Aug-16 01:00N 73°12' W 091°18'0 0.0 130 / 11017.9 4.4 1.6
2017-Aug-16 00:00N 73°12' W 091°18'0 0.0 060 / 21017.8 4.9 1.6
2017-Aug-15 23:00N 73°12' W 091°18'0 0.0 140 / 71017.7 2.7 0.9
2017-Aug-15 22:00N 73°12' W 091°18'0 0.0 110 / 41017.7 3.5 1.0
2017-Aug-15 21:00N 73°12' W 091°18'0 0.0 150 / 91017.8 3.3 0.5
2017-Aug-15 20:00N 73°12' W 091°18'0 0.0 140 / 21017.6 7.9 0.8
2017-Aug-15 19:00N 73°12' W 091°18'0 0.0 330 / 141017.3 5.9-0.3
2017-Aug-15 18:00N 73°12' W 091°18'0 0.0 350 / 211017.4 4.8 0.8
2017-Aug-15 17:00N 73°12' W 091°18'0 0.0 330 / 71017.6 4.8 0.7
2017-Aug-15 16:00N 73°12' W 091°18'0 0.0 350 / 71017.3 4.8-0.2
2017-Aug-15 15:00N 73°12' W 091°18'0 0.0 330 / 191017.2 3.3-0.0
2017-Aug-15 14:00N 73°12' W 091°18'0 0.0 340 / 171017.3 3.3 0.2
2017-Aug-15 13:00N 73°12' W 091°18'0 0.0 310 / 41017.8 3.8-0.4
2017-Aug-15 12:00N 73°12' W 091°18'0 0.0 020 / 41017.3 7.3 1.9
2017-Aug-15 11:00N 73°12' W 091°18'0 0.0 340 / 121017.6 1.4-0.7
2017-Aug-15 10:00N 73°12' W 091°18'0 0.0 330 / 141017.4 0.7-0.8
2017-Aug-15 09:00N 73°12' W 091°18'0 0.0 330 / 101017.2 0.7-0.8
2017-Aug-15 08:00N 73°12' W 091°18'0 0.0 320 / 161017.3 0.6-0.8
2017-Aug-15 07:00N 73°12' W 091°18'0 0.0 300 / 71016.7 1.7-0.6
2017-Aug-15 06:00N 73°12' W 091°18'0 0.0 270 / 121017.0 1.0-0.5
2017-Aug-15 05:00N 73°12' W 091°18'0 0.0 240 / 121016.2 1.6-0.6
2017-Aug-15 04:00N 73°12' W 091°18'0 0.0 320 / 181015.9 3.3-0.2
2017-Aug-15 03:00N 73°12' W 091°18'0 0.0 330 / 131015.5 2.8-0.3
2017-Aug-15 02:00N 73°12' W 091°18'0 0.0 300 / 111015.5 2.9 0.4
2017-Aug-15 01:00N 73°12' W 091°18'0 0.0 320 / 71015.3 5.5 0.8
2017-Aug-15 00:00N 73°12' W 091°18'0 0.0 350 / 201014.9 3.2 0.1
2017-Aug-14 23:00N 73°12' W 091°18'0 0.0 340 / 111014.8 3.2-0.0
2017-Aug-14 22:00N 73°12' W 091°18'0 0.0 350 / 181014.4 3.1 0.1
2017-Aug-14 21:00N 73°12' W 091°18'0 0.0 340 / 161013.7 3.3 0.1
2017-Aug-14 20:00N 73°12' W 091°18'0 0.0 340 / 231013.3 3.0 0.2
2017-Aug-14 19:00N 73°12' W 091°18'0 0.0 330 / 151012.8 3.1-0.1
2017-Aug-14 18:00N 73°12' W 091°18'0 0.0 340 / 211012.1 2.5-0.4
2017-Aug-14 17:00N 73°12' W 091°18'0 0.0 340 / 121011.8 2.5-0.4
2017-Aug-14 16:00N 73°12' W 091°18'0 0.0 350 / 131011.1 1.7-0.2
2017-Aug-14 15:00N 73°12' W 091°18'0 0.0 320 / 161009.9 1.9-0.6
2017-Aug-14 14:00N 73°12' W 091°18'0 0.0 320 / 31009.8 3.0 0.2
2017-Aug-14 13:00N 73°12' W 091°18'0 0.0 300 / 81008.6 2.5 0.1
2017-Aug-14 12:00N 73°12' W 091°18'0 0.0 260 / 121007.7 2.3 0.2
2017-Aug-14 11:00N 73°12' W 091°18'2 1.7 240 / 151006.0 2.2 0.8
2017-Aug-14 10:00N 73°12' W 091°24'0 0.0 280 / 121004.7 3.0 1.9
2017-Aug-14 09:00N 73°12' W 091°24'0 0.0 250 / 101004.4 4.7 4.5
2017-Aug-14 08:00N 73°12' W 091°24'0 0.0 290 / 151003.3 6.8 6.6
2017-Aug-14 07:00N 73°12' W 091°24'0 0.0 290 / 61003.0 9.1 8.9
2017-Aug-14 06:00N 73°12' W 091°24'0 0.0 300 / 41002.4 6.9 6.9
2017-Aug-14 05:00N 73°12' W 091°24'0 0.0 330 / 31002.1 6.4 6.4
2017-Aug-14 04:00N 73°12' W 091°24'0 0.0 080 / 61001.8 5.5 5.4
2017-Aug-14 03:00N 73°12' W 091°24'0 0.0 070 / 11001.6 6.5 6.4
2017-Aug-14 02:00N 73°12' W 091°24'0 0.0 230 / 51002.5 7.9 7.9
2017-Aug-14 01:00N 73°12' W 091°24'0 0.0 210 / 51002.4 5.0 4.9
2017-Aug-14 00:00N 73°12' W 091°24'0 0.0 030 / 51002.4 5.3 5.2
2017-Aug-13 23:00N 73°12' W 091°24'0 0.0 360 / 51003.3 4.4 4.3
2017-Aug-13 22:00N 73°12' W 091°24'0 0.0 120 / 131004.1 4.5 4.5
2017-Aug-13 21:00N 73°12' W 091°24'0 0.0 170 / 141005.4 4.5 4.5
2017-Aug-13 20:00N 73°12' W 091°24'0 0.0 170 / 151005.8 5.3 5.2
2017-Aug-13 19:00N 73°12' W 091°24'0 0.0 170 / 181006.0 5.5 5.4
2017-Aug-13 18:00N 73°12' W 091°24'0 0.0 160 / 91006.7 6.0 5.9
2017-Aug-13 17:00N 73°12' W 091°24'0 0.0 140 / 71007.0 6.0 5.9
2017-Aug-13 16:00N 73°12' W 091°24'0 0.0 150 / 101007.3 5.9 5.8
2017-Aug-13 15:00N 73°12' W 091°24'0 0.0 140 / 91007.5 4.6 4.5
2017-Aug-13 14:00N 73°12' W 091°24'2 1.7 170 / 51008.2 4.3 4.2
2017-Aug-13 13:00N 73°12' W 091°18'6 6.0 160 / 51008.7 2.9 2.8
2017-Aug-13 12:00N 73°06' W 091°18'1212.1 200 / 71009.2 3.4 3.2
2017-Aug-13 11:00N 72°54' W 091°24'7 7.0 220 / 81009.5 4.7 4.5
2017-Aug-13 10:00N 72°48' W 091°36'2010.1 250 / 71009.6 4.2 4.1
2017-Aug-13 08:00N 72°30' W 092°06'7 7.0 040 / 21009.8 3.4 3.3
2017-Aug-13 07:00N 72°24' W 092°18'8 8.1 350 / 61009.8 3.3 3.2
2017-Aug-13 06:00N 72°18' W 092°36'1312.5 250 / 41009.9 3.2 3.1
2017-Aug-13 05:00N 72°06' W 092°48'10 9.5 180 / 51010.0 4.8 4.7
2017-Aug-13 04:00N 72°00' W 093°12'8 8.2 200 / 41009.7 5.4 5.3
2017-Aug-13 03:00N 71°54' W 093°30'7 7.5 330 / 91010.4 4.4 4.3
2017-Aug-13 02:00N 71°54' W 093°54'1414.3 350 / 201010.4 3.2 3.1
2017-Aug-13 01:00N 72°00' W 094°36'1414.3 360 / 181010.3 4.8 4.7
2017-Aug-13 00:00N 71°54' W 095°18'7 7.5 020 / 241008.9 7.3 7.2
2017-Aug-12 23:00N 71°54' W 095°42'0 0.0 090 / 61009.6 11.210.8
2017-Aug-12 22:00N 71°54' W 095°42'0 0.0 120 / 41009.7 12.611.1
2017-Aug-12 21:00N 71°54' W 095°42'6 6.0 100 / 71009.9 12.711.3
2017-Aug-12 20:00N 71°48' W 095°42'7 7.1 030 / 31010.1 11.010.8
2017-Aug-12 19:00N 71°42' W 095°54'1414.2 290 / 61010.1 13.012.8
2017-Aug-12 18:00N 71°30' W 096°18'8 7.6 020 / 131010.0 13.913.4
2017-Aug-12 17:00N 71°30' W 096°42'7 7.1 020 / 111010.2 13.113.0
2017-Aug-12 16:00N 71°24' W 096°54'6 5.7 020 / 91010.6 8.9 8.8
2017-Aug-12 15:00N 71°24' W 097°12'6 6.0 060 / 41010.8 8.3 8.2
2017-Aug-12 14:00N 71°18' W 097°12'6 6.0 100 / 81010.9 11.1 9.9
2017-Aug-12 13:00N 71°12' W 097°12'6 6.3 160 / 81011.2 9.1 9.0
2017-Aug-12 12:00N 71°06' W 097°06'1212.2 150 / 81011.3 8.2 7.8
2017-Aug-12 11:00N 70°54' W 097°00'0 0.0 140 / 101011.3 12.110.5
2017-Aug-12 10:00N 70°54' W 097°00'0 0.0 170 / 121011.3 10.2 9.4
2017-Aug-12 09:00N 70°54' W 097°00'0 0.0 130 / 151011.3 19.7
2017-Aug-12 08:00N 70°54' W 097°00'0 0.0 120 / 101011.4 25.615.8
2017-Aug-12 07:00N 70°54' W 097°00'0 0.0 130 / 81011.3 23.915.1
2017-Aug-12 06:00N 70°54' W 097°00'0 0.0 130 / 61011.3 22.314.3
2017-Aug-12 05:00N 70°54' W 097°00'2 2.0 130 / 11011.3 13.510.0
2017-Aug-12 04:00N 70°54' W 097°06'0 0.0 130 / 81011.3 25.016.3
2017-Aug-12 03:00N 70°54' W 097°06'0 0.0 140 / 141011.6 30.019.6
2017-Aug-12 02:00N 70°54' W 097°06'6 6.0 130 / 61012.2 25.0
2017-Aug-12 01:00N 70°48' W 097°06'18 9.2 150 / 91012.4 5.9 5.6
2017-Aug-11 23:00N 70°30' W 097°18'1212.2 150 / 131012.6 12.410.7
2017-Aug-11 22:00N 70°18' W 097°24'8 8.1 110 / 131012.4 4.2 4.1
2017-Aug-11 21:00N 70°18' W 097°48'1313.5 100 / 111012.2 3.3 3.3
2017-Aug-11 20:00N 70°06' W 098°06'17 8.6 070 / 111011.9 2.9 2.9
2017-Aug-11 18:00N 69°54' W 098°42'4 4.1 100 / 101011.8 4.8 4.8
2017-Aug-11 17:00N 69°54' W 098°54'9 8.6 110 / 91011.9 4.3 4.3
2017-Aug-11 16:00N 69°48' W 099°12'1413.5 100 / 111011.9 4.9 5.0
2017-Aug-11 15:00N 69°36' W 099°30'7 7.3 130 / 81011.6 2.8 2.9
2017-Aug-11 14:00N 69°30' W 099°42'1514.7 130 / 101011.9 3.7 3.7
2017-Aug-11 13:00N 69°18' W 100°06'1010.4 100 / 81011.9 4.4 4.4
2017-Aug-11 12:00N 69°12' W 100°30'1010.4 110 / 101012.0 4.9 4.9
2017-Aug-11 11:00N 69°06' W 100°54'2 1.1 120 / 91011.7 5.3 5.3
2017-Aug-11 09:00N 69°06' W 100°48'6 6.4 160 / 101012.4 6.0 6.0
2017-Aug-11 08:00N 69°12' W 100°42'4 4.3 170 / 101012.5 5.4 5.4
2017-Aug-11 07:00N 69°12' W 100°30'6 6.4 190 / 101012.6 4.8 4.8
2017-Aug-11 06:00N 69°18' W 100°24'4 4.2 180 / 91012.8 3.7 3.8
2017-Aug-11 05:00N 69°18' W 100°12'7 7.3 180 / 91013.6 3.3 3.3
2017-Aug-11 04:00N 69°24' W 100°00'7 7.3 210 / 81013.9 2.4 2.4
2017-Aug-11 03:00N 69°30' W 099°48'6 6.0 200 / 121013.8 1.9 1.9
2017-Aug-11 02:00N 69°36' W 099°48'7 7.3 190 / 71014.3 2.5 2.5
2017-Aug-11 01:00N 69°42' W 099°36'1312.7 250 / 141014.7 1.2 1.2
2017-Aug-11 00:00N 69°54' W 099°24'9 8.6 240 / 101014.4 1.2 1.2
2017-Aug-10 23:00N 70°00' W 099°06'9 8.6 250 / 131014.5 1.2 1.2
2017-Aug-10 22:00N 70°06' W 098°48'6 6.0 250 / 181014.7 0.9 0.9
2017-Aug-10 21:00N 70°12' W 098°48'7 7.2 230 / 181014.5 1.2 1.2
2017-Aug-10 20:00N 70°18' W 098°36'1212.2 240 / 171014.5 0.6 0.6
2017-Aug-10 19:00N 70°30' W 098°30'6 6.3 230 / 161014.8 0.2 0.2
2017-Aug-10 18:00N 70°36' W 098°24'6 6.3 210 / 131015.1 -0.0-0.0
2017-Aug-10 17:00N 70°42' W 098°18'7 7.2 220 / 111015.4 -0.2-0.2
2017-Aug-10 16:00N 70°48' W 098°06'7 7.2 250 / 121015.4 -0.4-0.4
2017-Aug-10 15:00N 70°54' W 097°54'2 2.0 260 / 91015.7 0.1 0.1
2017-Aug-10 14:00N 70°54' W 097°48'1312.6 270 / 131015.8 0.1 0.1
2017-Aug-10 13:00N 71°06' W 097°36'6 5.8 290 / 81016.3 0.4 0.4
2017-Aug-10 12:00N 71°06' W 097°18'7 7.1 310 / 101016.4 0.6 0.6
2017-Aug-10 11:00N 71°12' W 097°06'1312.6 300 / 71016.4 1.6 1.6
2017-Aug-10 10:00N 71°24' W 096°54'1111.3 310 / 111016.1 1.4 1.4
2017-Aug-10 09:00N 71°30' W 096°24'1515.3 330 / 61015.7 0.9 0.9
2017-Aug-10 08:00N 71°42' W 095°54'7 7.1 350 / 61015.7 0.6 0.6
2017-Aug-10 07:00N 71°48' W 095°42'8 8.2 020 / 111015.2 0.8 0.7
2017-Aug-10 06:00N 71°54' W 095°24'9 9.3 020 / 111014.4 1.0 1.0
2017-Aug-10 05:00N 71°54' W 094°54'9 9.3 310 / 81013.8 2.2 2.2
2017-Aug-10 04:00N 71°54' W 094°24'9 9.3 360 / 81013.6 4.3 4.2
2017-Aug-10 03:00N 71°54' W 093°54'1616.4 010 / 171013.1 4.1 4.0
2017-Aug-10 02:00N 72°06' W 093°18'1111.0 020 / 141012.2 4.7 4.6
2017-Aug-10 01:00N 72°12' W 092°48'9 9.5 030 / 141011.8 3.6 3.6
2017-Aug-10 00:00N 72°18' W 092°24'1515.0 330 / 141011.3 1.5 1.5
2017-Aug-09 23:00N 72°30' W 091°54'1414.0 360 / 101010.9 2.0 2.1
2017-Aug-09 22:00N 72°42' W 091°30'1212.2 360 / 101010.5 1.3 1.3
2017-Aug-09 21:00N 72°48' W 090°54'1413.9 020 / 91010.0 0.8 0.8
2017-Aug-09 20:00N 73°00' W 090°30'1413.9 360 / 101009.7 0.6 0.6
2017-Aug-09 19:00N 73°12' W 090°06'8 7.9 020 / 101009.4 0.7 0.7
2017-Aug-09 18:00N 73°18' W 089°48'9 9.1 020 / 101009.4 0.4 0.4
2017-Aug-09 17:00N 73°24' W 089°24'1010.4 020 / 51009.5 0.1 0.1
2017-Aug-09 16:00N 73°30' W 088°54'1615.7 050 / 71009.7 0.1 0.1
2017-Aug-09 15:00N 73°42' W 088°18'1211.7 020 / 51009.9 -0.2-0.2
2017-Aug-09 14:00N 73°48' W 087°42'1211.7 330 / 61010.2 -0.0-0.0
2017-Aug-09 13:00N 73°54' W 087°06'1313.1 300 / 101010.2 0.3 0.3
2017-Aug-09 12:00N 74°00' W 086°24'1211.6 260 / 51010.2 1.1 1.1
2017-Aug-09 11:00N 74°00' W 085°42'1414.5 280 / 71010.1 1.7 1.7
2017-Aug-09 10:00N 74°06' W 084°54'1211.5 270 / 81010.0 1.6 1.6
2017-Aug-09 09:00N 74°06' W 084°12'1313.0 260 / 51010.4 1.4 1.5
2017-Aug-09 08:00N 74°00' W 083°30'1514.6 290 / 31010.4 2.8 2.8
2017-Aug-09 07:00N 73°54' W 082°42'1313.3 300 / 31010.5 2.6 2.6
2017-Aug-09 06:00N 73°54' W 081°54'1010.3 130 / 51010.6 3.1 3.2
2017-Aug-09 05:00N 73°48' W 081°24'1313.0 120 / 21010.6 2.8 2.8
2017-Aug-09 04:00N 73°36' W 081°06'1212.1 280 / 131010.4 2.7 2.7
2017-Aug-09 03:00N 73°24' W 081°00'1212.5 290 / 141010.3 2.7 2.7
2017-Aug-09 02:00N 73°12' W 080°48'9 9.2 280 / 131010.1 2.7 2.7
2017-Aug-09 01:00N 73°06' W 080°24'1212.1 290 / 211009.5 3.1 3.2
2017-Aug-09 00:00N 72°54' W 080°18'9 9.3 310 / 171009.7 3.7 3.6
2017-Aug-08 23:00N 72°48' W 079°54'1212.2 320 / 81009.8 4.1 4.1
2017-Aug-08 22:00N 72°42' W 079°18'1414.3 320 / 31009.6 3.8 3.8
2017-Aug-08 21:00N 72°42' W 078°30'9 8.9 250 / 21009.1 4.0 4.0
2017-Aug-08 20:00N 72°42' W 078°00'0 0.0 320 / 21008.9 5.1 5.2
2017-Aug-08 19:00N 72°42' W 078°00'0 0.0 360 / 31008.8 4.9 4.9
2017-Aug-08 18:00N 72°42' W 078°00'0 0.0 040 / 31008.7 4.7 4.7
2017-Aug-08 17:00N 72°42' W 078°00'0 0.0 030 / 41008.7 4.8 4.9
2017-Aug-08 16:00N 72°42' W 078°00'0 0.0 350 / 41008.7 5.5 5.5
2017-Aug-08 14:00N 72°42' W 078°00'0 0.0 310 / 11008.7 5.3 5.3
2017-Aug-08 13:00N 72°42' W 078°00'0 0.0 030 / 71008.4 4.6 4.7
2017-Aug-08 12:00N 72°42' W 078°00'0 0.0 010 / 41008.4 5.2 5.2
2017-Aug-08 11:00N 72°42' W 078°00'0 0.0 350 / 31008.3 5.2 5.2
2017-Aug-08 10:00N 72°42' W 078°00'0 0.0 210 / 21008.4 6.2 6.2
2017-Aug-08 09:00N 72°42' W 078°00'0 0.0 330 / 11008.7 5.7 5.7
2017-Aug-08 08:00N 72°42' W 078°00'0 0.0 140 / 11008.9 7.0 7.0
2017-Aug-08 07:00N 72°42' W 078°00'0 0.0 1008.9 6.8 6.8
2017-Aug-08 06:00N 72°42' W 078°00'0 0.0 060 / 11008.7 6.9 6.8
2017-Aug-08 05:00N 72°42' W 078°00'0 0.0 010 / 21009.0 4.3 4.3
2017-Aug-08 04:00N 72°42' W 078°00'0 0.0 270 / 11009.4 7.0 6.9
2017-Aug-08 03:00N 72°42' W 078°00'0 0.0 340 / 21009.7 6.2 6.2
2017-Aug-08 02:00N 72°42' W 078°00'0 0.0 070 / 31009.9 6.3 6.3
2017-Aug-08 01:00N 72°42' W 078°00'0 0.0 360 / 31009.8 5.1 5.1
2017-Aug-08 00:00N 72°42' W 078°00'0 0.0 020 / 101009.5 5.7 5.7
2017-Aug-07 23:00N 72°42' W 078°00'0 0.0 1009.4 6.9 6.9
2017-Aug-07 22:00N 72°42' W 078°00'0 0.0 030 / 51009.3 6.3 6.3
2017-Aug-07 21:00N 72°42' W 078°00'0 0.0 1009.4 7.9 7.9
2017-Aug-07 20:00N 72°42' W 078°00'0 0.0 150 / 41009.6 7.9 7.8
2017-Aug-07 19:00N 72°42' W 078°00'0 0.0 140 / 21010.0 8.3 8.3
2017-Aug-07 18:00N 72°42' W 078°00'0 0.0 1010.2 9.3 9.2
2017-Aug-07 17:00N 72°42' W 078°00'0 0.0
2017-Aug-07 16:00N 72°42' W 078°00'   230 / 11010.4 6.3 6.3
Track history (hours):
 
Tides and Currents Weather Stations Pressure Air Temp Water Temp Dewpoint Dewpoint Depression Visibility Wind Speed Wind Dir Waves Ship Positions

Oceanographic research ship CCGS Terry Fox (Canada)

Detailed information on ship capabilities available from ARCUS's ALIAS (Arctic Logistics Information and Support) project.

Last reported at 2017-Aug-17 16:00 UTC. Time now 2017-Aug-17 17:09 UTC.
Position N 73°12' W 091°18'.

Length 88 m; beam 17.82 m; draft 2 m.

Type: SAR. MMSI: 316122000.

Wind from 050 at 12 knots

Barometer 1016.2 mb
Air temperature 3.1 ° C
Dewpoint 0.8 ° C

Date/timePositionNaut miles runAvg speedWind from/ knotsBaromVisibWave heightAir tempDewpointWater temp
2017-Aug-17 16:00N 73°12' W 091°18'0 0.0 050 / 121016.2 3.1 0.8
2017-Aug-17 15:00N 73°12' W 091°18'0 0.0 040 / 101016.6 2.5 0.5
2017-Aug-17 14:00N 73°12' W 091°18'0 0.0 040 / 41016.8 3.0 0.5
2017-Aug-17 13:00N 73°12' W 091°18'0 0.0 050 / 41017.2 5.4 1.6
2017-Aug-17 12:00N 73°12' W 091°18'0 0.0 240 / 81017.2 3.4 0.5
2017-Aug-17 11:00N 73°12' W 091°18'0 0.0 250 / 101017.4 3.1-0.0
2017-Aug-17 10:00N 73°12' W 091°18'0 0.0 250 / 71017.4 3.4 0.2
2017-Aug-17 09:00N 73°12' W 091°18'0 0.0 240 / 81017.5 3.4-0.2
2017-Aug-17 08:00N 73°12' W 091°18'0 0.0 240 / 51017.4 3.4 0.6
2017-Aug-17 07:00N 73°12' W 091°18'0 0.0 310 / 11017.4 3.4 1.5
2017-Aug-17 06:00N 73°12' W 091°18'0 0.0 240 / 11017.3 4.1 1.7
2017-Aug-17 05:00N 73°12' W 091°18'0 0.0 250 / 51017.0 4.2 2.1
2017-Aug-17 04:00N 73°12' W 091°18'0 0.0 250 / 21017.0 3.2 1.1
2017-Aug-17 03:00N 73°12' W 091°18'0 0.0 080 / 11016.9 3.3 2.4
2017-Aug-17 02:00N 73°12' W 091°18'0 0.0 040 / 41017.2 3.2 1.8
2017-Aug-17 01:00N 73°12' W 091°18'0 0.0 240 / 31017.2 3.8 1.5
2017-Aug-17 00:00N 73°12' W 091°18'0 0.0 240 / 11017.5 4.3 3.0
2017-Aug-16 23:00N 73°12' W 091°18'0 0.0 080 / 61017.4 2.3 2.0
2017-Aug-16 22:00N 73°12' W 091°18'0 0.0 080 / 71017.2 2.8 1.5
2017-Aug-16 21:00N 73°12' W 091°18'0 0.0 050 / 91017.1 3.0 0.3
2017-Aug-16 20:00N 73°12' W 091°18'0 0.0 150 / 91016.9 4.0 0.4
2017-Aug-16 19:00N 73°12' W 091°18'0 0.0 160 / 111017.1 3.9-0.3
2017-Aug-16 18:00N 73°12' W 091°18'0 0.0 160 / 121017.3 4.6-1.2
2017-Aug-16 17:00N 73°12' W 091°18'0 0.0 150 / 91017.7 4.4-0.4
2017-Aug-16 16:00N 73°12' W 091°18'0 0.0 150 / 71017.9 3.7-0.5
2017-Aug-16 15:00N 73°12' W 091°18'0 0.0 160 / 31018.0 4.4-0.1
2017-Aug-16 14:00N 73°12' W 091°18'0 0.0 250 / 41018.1 3.5 0.3
2017-Aug-16 13:00N 73°12' W 091°18'0 0.0 180 / 21018.2 2.7 0.7
2017-Aug-16 12:00N 73°12' W 091°18'0 0.0 250 / 71018.3 2.3-0.4
2017-Aug-16 11:00N 73°12' W 091°18'0 0.0 240 / 91018.0 2.3-0.6
2017-Aug-16 10:00N 73°12' W 091°18'0 0.0 230 / 111017.9 2.6-1.2
2017-Aug-16 09:00N 73°12' W 091°18'0 0.0 240 / 121017.8 2.3-1.0
2017-Aug-16 07:00N 73°12' W 091°18'0 0.0 230 / 71018.0 3.0-0.5
2017-Aug-16 06:00N 73°12' W 091°18'0 0.0 260 / 31018.2 4.3-0.7
2017-Aug-16 05:00N 73°12' W 091°18'0 0.0 310 / 21018.1 4.3-0.1
2017-Aug-16 03:00N 73°12' W 091°18'0 0.0 1017.8 5.8 0.2
2017-Aug-16 02:00N 73°12' W 091°18'0 0.0 270 / 11017.8 6.1 0.7
2017-Aug-16 01:00N 73°12' W 091°18'0 0.0 130 / 11017.9 4.4 1.6
2017-Aug-16 00:00N 73°12' W 091°18'0 0.0 060 / 21017.8 4.9 1.6
2017-Aug-15 23:00N 73°12' W 091°18'0 0.0 140 / 71017.7 2.7 0.9
2017-Aug-15 22:00N 73°12' W 091°18'0 0.0 110 / 41017.7 3.5 1.0
2017-Aug-15 21:00N 73°12' W 091°18'0 0.0 150 / 91017.8 3.3 0.5
2017-Aug-15 20:00N 73°12' W 091°18'0 0.0 140 / 21017.6 7.9 0.8
2017-Aug-15 19:00N 73°12' W 091°18'0 0.0 330 / 141017.3 5.9-0.3
2017-Aug-15 18:00N 73°12' W 091°18'0 0.0 350 / 211017.4 4.8 0.8
2017-Aug-15 17:00N 73°12' W 091°18'0 0.0 330 / 71017.6 4.8 0.7
2017-Aug-15 16:00N 73°12' W 091°18'0 0.0 350 / 71017.3 4.8-0.2
2017-Aug-15 15:00N 73°12' W 091°18'0 0.0 330 / 191017.2 3.3-0.0
2017-Aug-15 14:00N 73°12' W 091°18'0 0.0 340 / 171017.3 3.3 0.2
2017-Aug-15 13:00N 73°12' W 091°18'0 0.0 310 / 41017.8 3.8-0.4
2017-Aug-15 12:00N 73°12' W 091°18'0 0.0 020 / 41017.3 7.3 1.9
2017-Aug-15 11:00N 73°12' W 091°18'0 0.0 340 / 121017.6 1.4-0.7
2017-Aug-15 10:00N 73°12' W 091°18'0 0.0 330 / 141017.4 0.7-0.8
2017-Aug-15 09:00N 73°12' W 091°18'0 0.0 330 / 101017.2 0.7-0.8
2017-Aug-15 08:00N 73°12' W 091°18'0 0.0 320 / 161017.3 0.6-0.8
2017-Aug-15 07:00N 73°12' W 091°18'0 0.0 300 / 71016.7 1.7-0.6
2017-Aug-15 06:00N 73°12' W 091°18'0 0.0 270 / 121017.0 1.0-0.5
2017-Aug-15 05:00N 73°12' W 091°18'0 0.0 240 / 121016.2 1.6-0.6
2017-Aug-15 04:00N 73°12' W 091°18'0 0.0 320 / 181015.9 3.3-0.2
2017-Aug-15 03:00N 73°12' W 091°18'0 0.0 330 / 131015.5 2.8-0.3
2017-Aug-15 02:00N 73°12' W 091°18'0 0.0 300 / 111015.5 2.9 0.4
2017-Aug-15 01:00N 73°12' W 091°18'0 0.0 320 / 71015.3 5.5 0.8
2017-Aug-15 00:00N 73°12' W 091°18'0 0.0 350 / 201014.9 3.2 0.1
2017-Aug-14 23:00N 73°12' W 091°18'0 0.0 340 / 111014.8 3.2-0.0
2017-Aug-14 22:00N 73°12' W 091°18'0 0.0 350 / 181014.4 3.1 0.1
2017-Aug-14 21:00N 73°12' W 091°18'0 0.0 340 / 161013.7 3.3 0.1
2017-Aug-14 20:00N 73°12' W 091°18'0 0.0 340 / 231013.3 3.0 0.2
2017-Aug-14 19:00N 73°12' W 091°18'0 0.0 330 / 151012.8 3.1-0.1
2017-Aug-14 18:00N 73°12' W 091°18'0 0.0 340 / 211012.1 2.5-0.4
2017-Aug-14 17:00N 73°12' W 091°18'0 0.0 340 / 121011.8 2.5-0.4
2017-Aug-14 16:00N 73°12' W 091°18'0 0.0 350 / 131011.1 1.7-0.2
2017-Aug-14 15:00N 73°12' W 091°18'0 0.0 320 / 161009.9 1.9-0.6
2017-Aug-14 14:00N 73°12' W 091°18'0 0.0 320 / 31009.8 3.0 0.2
2017-Aug-14 13:00N 73°12' W 091°18'0 0.0 300 / 81008.6 2.5 0.1
2017-Aug-14 12:00N 73°12' W 091°18'0 0.0 260 / 121007.7 2.3 0.2
2017-Aug-14 11:00N 73°12' W 091°18'2 1.7 240 / 151006.0 2.2 0.8
2017-Aug-14 10:00N 73°12' W 091°24'0 0.0 280 / 121004.7 3.0 1.9
2017-Aug-14 09:00N 73°12' W 091°24'0 0.0 250 / 101004.4 4.7 4.5
2017-Aug-14 08:00N 73°12' W 091°24'0 0.0 290 / 151003.3 6.8 6.6
2017-Aug-14 07:00N 73°12' W 091°24'0 0.0 290 / 61003.0 9.1 8.9
2017-Aug-14 06:00N 73°12' W 091°24'0 0.0 300 / 41002.4 6.9 6.9
2017-Aug-14 05:00N 73°12' W 091°24'0 0.0 330 / 31002.1 6.4 6.4
2017-Aug-14 04:00N 73°12' W 091°24'0 0.0 080 / 61001.8 5.5 5.4
2017-Aug-14 03:00N 73°12' W 091°24'0 0.0 070 / 11001.6 6.5 6.4
2017-Aug-14 02:00N 73°12' W 091°24'0 0.0 230 / 51002.5 7.9 7.9
2017-Aug-14 01:00N 73°12' W 091°24'0 0.0 210 / 51002.4 5.0 4.9
2017-Aug-14 00:00N 73°12' W 091°24'0 0.0 030 / 51002.4 5.3 5.2
2017-Aug-13 23:00N 73°12' W 091°24'0 0.0 360 / 51003.3 4.4 4.3
2017-Aug-13 22:00N 73°12' W 091°24'0 0.0 120 / 131004.1 4.5 4.5
2017-Aug-13 21:00N 73°12' W 091°24'0 0.0 170 / 141005.4 4.5 4.5
2017-Aug-13 20:00N 73°12' W 091°24'0 0.0 170 / 151005.8 5.3 5.2
2017-Aug-13 19:00N 73°12' W 091°24'0 0.0 170 / 181006.0 5.5 5.4
2017-Aug-13 18:00N 73°12' W 091°24'0 0.0 160 / 91006.7 6.0 5.9
2017-Aug-13 17:00N 73°12' W 091°24'0 0.0 140 / 71007.0 6.0 5.9
2017-Aug-13 16:00N 73°12' W 091°24'0 0.0 150 / 101007.3 5.9 5.8
2017-Aug-13 15:00N 73°12' W 091°24'0 0.0 140 / 91007.5 4.6 4.5
2017-Aug-13 14:00N 73°12' W 091°24'2 1.7 170 / 51008.2 4.3 4.2
2017-Aug-13 13:00N 73°12' W 091°18'6 6.0 160 / 51008.7 2.9 2.8
2017-Aug-13 12:00N 73°06' W 091°18'1212.1 200 / 71009.2 3.4 3.2
2017-Aug-13 11:00N 72°54' W 091°24'7 7.0 220 / 81009.5 4.7 4.5
2017-Aug-13 10:00N 72°48' W 091°36'2010.1 250 / 71009.6 4.2 4.1
2017-Aug-13 08:00N 72°30' W 092°06'7 7.0 040 / 21009.8 3.4 3.3
2017-Aug-13 07:00N 72°24' W 092°18'8 8.1 350 / 61009.8 3.3 3.2
2017-Aug-13 06:00N 72°18' W 092°36'1312.5 250 / 41009.9 3.2 3.1
2017-Aug-13 05:00N 72°06' W 092°48'10 9.5 180 / 51010.0 4.8 4.7
2017-Aug-13 04:00N 72°00' W 093°12'8 8.2 200 / 41009.7 5.4 5.3
2017-Aug-13 03:00N 71°54' W 093°30'7 7.5 330 / 91010.4 4.4 4.3
2017-Aug-13 02:00N 71°54' W 093°54'1414.3 350 / 201010.4 3.2 3.1
2017-Aug-13 01:00N 72°00' W 094°36'1414.3 360 / 181010.3 4.8 4.7
2017-Aug-13 00:00N 71°54' W 095°18'7 7.5 020 / 241008.9 7.3 7.2
2017-Aug-12 23:00N 71°54' W 095°42'0 0.0 090 / 61009.6 11.210.8
2017-Aug-12 22:00N 71°54' W 095°42'0 0.0 120 / 41009.7 12.611.1
2017-Aug-12 21:00N 71°54' W 095°42'6 6.0 100 / 71009.9 12.711.3
2017-Aug-12 20:00N 71°48' W 095°42'7 7.1 030 / 31010.1 11.010.8
2017-Aug-12 19:00N 71°42' W 095°54'1414.2 290 / 61010.1 13.012.8
2017-Aug-12 18:00N 71°30' W 096°18'8 7.6 020 / 131010.0 13.913.4
2017-Aug-12 17:00N 71°30' W 096°42'7 7.1 020 / 111010.2 13.113.0
2017-Aug-12 16:00N 71°24' W 096°54'6 5.7 020 / 91010.6 8.9 8.8
2017-Aug-12 15:00N 71°24' W 097°12'6 6.0 060 / 41010.8 8.3 8.2
2017-Aug-12 14:00N 71°18' W 097°12'6 6.0 100 / 81010.9 11.1 9.9
2017-Aug-12 13:00N 71°12' W 097°12'6 6.3 160 / 81011.2 9.1 9.0
2017-Aug-12 12:00N 71°06' W 097°06'1212.2 150 / 81011.3 8.2 7.8
2017-Aug-12 11:00N 70°54' W 097°00'0 0.0 140 / 101011.3 12.110.5
2017-Aug-12 10:00N 70°54' W 097°00'0 0.0 170 / 121011.3 10.2 9.4
2017-Aug-12 09:00N 70°54' W 097°00'0 0.0 130 / 151011.3 19.7
2017-Aug-12 08:00N 70°54' W 097°00'0 0.0 120 / 101011.4 25.615.8
2017-Aug-12 07:00N 70°54' W 097°00'0 0.0 130 / 81011.3 23.915.1
2017-Aug-12 06:00N 70°54' W 097°00'0 0.0 130 / 61011.3 22.314.3
2017-Aug-12 05:00N 70°54' W 097°00'2 2.0 130 / 11011.3 13.510.0
2017-Aug-12 04:00N 70°54' W 097°06'0 0.0 130 / 81011.3 25.016.3
2017-Aug-12 03:00N 70°54' W 097°06'0 0.0 140 / 141011.6 30.019.6
2017-Aug-12 02:00N 70°54' W 097°06'6 6.0 130 / 61012.2 25.0
2017-Aug-12 01:00N 70°48' W 097°06'18 9.2 150 / 91012.4 5.9 5.6
2017-Aug-11 23:00N 70°30' W 097°18'1212.2 150 / 131012.6 12.410.7
2017-Aug-11 22:00N 70°18' W 097°24'8 8.1 110 / 131012.4 4.2 4.1
2017-Aug-11 21:00N 70°18' W 097°48'1313.5 100 / 111012.2 3.3 3.3
2017-Aug-11 20:00N 70°06' W 098°06'17 8.6 070 / 111011.9 2.9 2.9
2017-Aug-11 18:00N 69°54' W 098°42'4 4.1 100 / 101011.8 4.8 4.8
2017-Aug-11 17:00N 69°54' W 098°54'9 8.6 110 / 91011.9 4.3 4.3
2017-Aug-11 16:00N 69°48' W 099°12'1413.5 100 / 111011.9 4.9 5.0
2017-Aug-11 15:00N 69°36' W 099°30'7 7.3 130 / 81011.6 2.8 2.9
2017-Aug-11 14:00N 69°30' W 099°42'1514.7 130 / 101011.9 3.7 3.7
2017-Aug-11 13:00N 69°18' W 100°06'1010.4 100 / 81011.9 4.4 4.4
2017-Aug-11 12:00N 69°12' W 100°30'1010.4 110 / 101012.0 4.9 4.9
2017-Aug-11 11:00N 69°06' W 100°54'2 1.1 120 / 91011.7 5.3 5.3
2017-Aug-11 09:00N 69°06' W 100°48'6 6.4 160 / 101012.4 6.0 6.0
2017-Aug-11 08:00N 69°12' W 100°42'4 4.3 170 / 101012.5 5.4 5.4
2017-Aug-11 07:00N 69°12' W 100°30'6 6.4 190 / 101012.6 4.8 4.8
2017-Aug-11 06:00N 69°18' W 100°24'4 4.2 180 / 91012.8 3.7 3.8
2017-Aug-11 05:00N 69°18' W 100°12'7 7.3 180 / 91013.6 3.3 3.3
2017-Aug-11 04:00N 69°24' W 100°00'7 7.3 210 / 81013.9 2.4 2.4
2017-Aug-11 03:00N 69°30' W 099°48'6 6.0 200 / 121013.8 1.9 1.9
2017-Aug-11 02:00N 69°36' W 099°48'7 7.3 190 / 71014.3 2.5 2.5
2017-Aug-11 01:00N 69°42' W 099°36'1312.7 250 / 141014.7 1.2 1.2
2017-Aug-11 00:00N 69°54' W 099°24'9 8.6 240 / 101014.4 1.2 1.2
2017-Aug-10 23:00N 70°00' W 099°06'9 8.6 250 / 131014.5 1.2 1.2
2017-Aug-10 22:00N 70°06' W 098°48'6 6.0 250 / 181014.7 0.9 0.9
2017-Aug-10 21:00N 70°12' W 098°48'7 7.2 230 / 181014.5 1.2 1.2
2017-Aug-10 20:00N 70°18' W 098°36'1212.2 240 / 171014.5 0.6 0.6
2017-Aug-10 19:00N 70°30' W 098°30'6 6.3 230 / 161014.8 0.2 0.2
2017-Aug-10 18:00N 70°36' W 098°24'6 6.3 210 / 131015.1 -0.0-0.0
2017-Aug-10 17:00N 70°42' W 098°18'7 7.2 220 / 111015.4 -0.2-0.2
2017-Aug-10 16:00N 70°48' W 098°06'7 7.2 250 / 121015.4 -0.4-0.4
2017-Aug-10 15:00N 70°54' W 097°54'2 2.0 260 / 91015.7 0.1 0.1
2017-Aug-10 14:00N 70°54' W 097°48'1312.6 270 / 131015.8 0.1 0.1
2017-Aug-10 13:00N 71°06' W 097°36'6 5.8 290 / 81016.3 0.4 0.4
2017-Aug-10 12:00N 71°06' W 097°18'7 7.1 310 / 101016.4 0.6 0.6
2017-Aug-10 11:00N 71°12' W 097°06'1312.6 300 / 71016.4 1.6 1.6
2017-Aug-10 10:00N 71°24' W 096°54'1111.3 310 / 111016.1 1.4 1.4
2017-Aug-10 09:00N 71°30' W 096°24'1515.3 330 / 61015.7 0.9 0.9
2017-Aug-10 08:00N 71°42' W 095°54'7 7.1 350 / 61015.7 0.6 0.6
2017-Aug-10 07:00N 71°48' W 095°42'8 8.2 020 / 111015.2 0.8 0.7
2017-Aug-10 06:00N 71°54' W 095°24'9 9.3 020 / 111014.4 1.0 1.0
2017-Aug-10 05:00N 71°54' W 094°54'9 9.3 310 / 81013.8 2.2 2.2
2017-Aug-10 04:00N 71°54' W 094°24'9 9.3 360 / 81013.6 4.3 4.2
2017-Aug-10 03:00N 71°54' W 093°54'1616.4 010 / 171013.1 4.1 4.0
2017-Aug-10 02:00N 72°06' W 093°18'1111.0 020 / 141012.2 4.7 4.6
2017-Aug-10 01:00N 72°12' W 092°48'9 9.5 030 / 141011.8 3.6 3.6
2017-Aug-10 00:00N 72°18' W 092°24'1515.0 330 / 141011.3 1.5 1.5
2017-Aug-09 23:00N 72°30' W 091°54'1414.0 360 / 101010.9 2.0 2.1
2017-Aug-09 22:00N 72°42' W 091°30'1212.2 360 / 101010.5 1.3 1.3
2017-Aug-09 21:00N 72°48' W 090°54'1413.9 020 / 91010.0 0.8 0.8
2017-Aug-09 20:00N 73°00' W 090°30'1413.9 360 / 101009.7 0.6 0.6
2017-Aug-09 19:00N 73°12' W 090°06'8 7.9 020 / 101009.4 0.7 0.7
2017-Aug-09 18:00N 73°18' W 089°48'9 9.1 020 / 101009.4 0.4 0.4
2017-Aug-09 17:00N 73°24' W 089°24'1010.4 020 / 51009.5 0.1 0.1
2017-Aug-09 16:00N 73°30' W 088°54'1615.7 050 / 71009.7 0.1 0.1
2017-Aug-09 15:00N 73°42' W 088°18'1211.7 020 / 51009.9 -0.2-0.2
2017-Aug-09 14:00N 73°48' W 087°42'1211.7 330 / 61010.2 -0.0-0.0
2017-Aug-09 13:00N 73°54' W 087°06'1313.1 300 / 101010.2 0.3 0.3
2017-Aug-09 12:00N 74°00' W 086°24'1211.6 260 / 51010.2 1.1 1.1
2017-Aug-09 11:00N 74°00' W 085°42'1414.5 280 / 71010.1 1.7 1.7
2017-Aug-09 10:00N 74°06' W 084°54'1211.5 270 / 81010.0 1.6 1.6
2017-Aug-09 09:00N 74°06' W 084°12'1313.0 260 / 51010.4 1.4 1.5
2017-Aug-09 08:00N 74°00' W 083°30'1514.6 290 / 31010.4 2.8 2.8
2017-Aug-09 07:00N 73°54' W 082°42'1313.3 300 / 31010.5 2.6 2.6
2017-Aug-09 06:00N 73°54' W 081°54'1010.3 130 / 51010.6 3.1 3.2
2017-Aug-09 05:00N 73°48' W 081°24'1313.0 120 / 21010.6 2.8 2.8
2017-Aug-09 04:00N 73°36' W 081°06'1212.1 280 / 131010.4 2.7 2.7
2017-Aug-09 03:00N 73°24' W 081°00'1212.5 290 / 141010.3 2.7 2.7
2017-Aug-09 02:00N 73°12' W 080°48'9 9.2 280 / 131010.1 2.7 2.7
2017-Aug-09 01:00N 73°06' W 080°24'1212.1 290 / 211009.5 3.1 3.2
2017-Aug-09 00:00N 72°54' W 080°18'9 9.3 310 / 171009.7 3.7 3.6
2017-Aug-08 23:00N 72°48' W 079°54'1212.2 320 / 81009.8 4.1 4.1
2017-Aug-08 22:00N 72°42' W 079°18'1414.3 320 / 31009.6 3.8 3.8
2017-Aug-08 21:00N 72°42' W 078°30'9 8.9 250 / 21009.1 4.0 4.0
2017-Aug-08 20:00N 72°42' W 078°00'0 0.0 320 / 21008.9 5.1 5.2
2017-Aug-08 19:00N 72°42' W 078°00'0 0.0 360 / 31008.8 4.9 4.9
2017-Aug-08 18:00N 72°42' W 078°00'0 0.0 040 / 31008.7 4.7 4.7
2017-Aug-08 17:00N 72°42' W 078°00'0 0.0 030 / 41008.7 4.8 4.9
2017-Aug-08 16:00N 72°42' W 078°00'0 0.0 350 / 41008.7 5.5 5.5
2017-Aug-08 14:00N 72°42' W 078°00'0 0.0 310 / 11008.7 5.3 5.3
2017-Aug-08 13:00N 72°42' W 078°00'0 0.0 030 / 71008.4 4.6 4.7
2017-Aug-08 12:00N 72°42' W 078°00'0 0.0 010 / 41008.4 5.2 5.2
2017-Aug-08 11:00N 72°42' W 078°00'0 0.0 350 / 31008.3 5.2 5.2
2017-Aug-08 10:00N 72°42' W 078°00'0 0.0 210 / 21008.4 6.2 6.2
2017-Aug-08 09:00N 72°42' W 078°00'0 0.0 330 / 11008.7 5.7 5.7
2017-Aug-08 08:00N 72°42' W 078°00'0 0.0 140 / 11008.9 7.0 7.0
2017-Aug-08 07:00N 72°42' W 078°00'0 0.0 1008.9 6.8 6.8
2017-Aug-08 06:00N 72°42' W 078°00'0 0.0 060 / 11008.7 6.9 6.8
2017-Aug-08 05:00N 72°42' W 078°00'0 0.0 010 / 21009.0 4.3 4.3
2017-Aug-08 04:00N 72°42' W 078°00'0 0.0 270 / 11009.4 7.0 6.9
2017-Aug-08 03:00N 72°42' W 078°00'0 0.0 340 / 21009.7 6.2 6.2
2017-Aug-08 02:00N 72°42' W 078°00'0 0.0 070 / 31009.9 6.3 6.3
2017-Aug-08 01:00N 72°42' W 078°00'0 0.0 360 / 31009.8 5.1 5.1
2017-Aug-08 00:00N 72°42' W 078°00'0 0.0 020 / 101009.5 5.7 5.7
2017-Aug-07 23:00N 72°42' W 078°00'0 0.0 1009.4 6.9 6.9
2017-Aug-07 22:00N 72°42' W 078°00'0 0.0 030 / 51009.3 6.3 6.3
2017-Aug-07 21:00N 72°42' W 078°00'0 0.0 1009.4 7.9 7.9
2017-Aug-07 20:00N 72°42' W 078°00'0 0.0 150 / 41009.6 7.9 7.8
2017-Aug-07 19:00N 72°42' W 078°00'0 0.0 140 / 21010.0 8.3 8.3
2017-Aug-07 18:00N 72°42' W 078°00'0 0.0 1010.2 9.3 9.2
2017-Aug-07 17:00N 72°42' W 078°00'0 0.0
2017-Aug-07 16:00N 72°42' W 078°00'   230 / 11010.4 6.3 6.3

Dump ship's entire track history